Time;durP1;ratioP1;P1;durP2;ratioP2;P2;SDS_P1;SDS_P2;PMS_P1;PMS_P2;Temp;Humidity;BMP_temperature;BMP_pressure;BME280_temperature;BME280_humidity;BME280_pressure;Samples;Min_cycle;Max_cycle;Signal;HPM_P1;HPM_P2
2022/03/18 00:00:00;;;;;;;41.72;21.10;;;4.10;99.90;;;;;;5054297;28;20025;-61
2022/03/18 00:02:26;;;;;;;38.85;21.25;;;4.00;99.90;;;;;;5053582;28;20408;-61
2022/03/18 00:04:54;;;;;;;37.97;20.85;;;3.90;99.90;;;;;;5052961;28;20144;-61
2022/03/18 00:07:21;;;;;;;36.97;21.58;;;3.80;99.90;;;;;;5052536;28;20052;-61
2022/03/18 00:09:50;;;;;;;35.92;20.25;;;3.70;99.90;;;;;;5054059;28;20016;-61
2022/03/18 00:12:16;;;;;;;38.20;21.75;;;3.70;99.90;;;;;;5054015;28;20119;-61
2022/03/18 00:14:42;;;;;;;43.15;21.63;;;3.60;99.90;;;;;;5053953;28;20029;-61
2022/03/18 00:17:10;;;;;;;38.42;20.10;;;3.50;99.90;;;;;;5054139;28;20029;-61
2022/03/18 00:19:36;;;;;;;38.00;19.60;;;3.40;99.90;;;;;;5053534;28;20473;-61
2022/03/18 00:22:03;;;;;;;40.97;20.95;;;3.30;99.90;;;;;;5052214;28;20036;-61
2022/03/18 00:24:31;;;;;;;36.92;20.50;;;3.70;99.90;;;;;;5052434;28;20102;-61
2022/03/18 00:26:58;;;;;;;33.53;20.05;;;3.20;99.90;;;;;;5053471;28;20020;-61
2022/03/18 00:29:25;;;;;;;37.58;20.30;;;3.10;99.90;;;;;;5053793;28;20029;-61
2022/03/18 00:31:51;;;;;;;43.90;22.15;;;2.90;99.90;;;;;;5052134;28;20029;-61
2022/03/18 00:34:16;;;;;;;36.95;19.98;;;2.80;99.90;;;;;;5053682;28;20029;-61
2022/03/18 00:36:42;;;;;;;37.22;20.63;;;2.80;99.90;;;;;;5053787;28;20068;-61
2022/03/18 00:39:08;;;;;;;41.25;21.95;;;2.80;99.90;;;;;;5053672;28;20039;-61
2022/03/18 00:41:34;;;;;;;39.55;22.13;;;2.80;99.90;;;;;;5053399;28;20483;-61
2022/03/18 00:43:59;;;;;;;44.85;24.42;;;2.90;99.90;;;;;;5053332;28;20037;-61
2022/03/18 00:46:25;;;;;;;42.08;23.55;;;3.00;99.90;;;;;;5053516;28;20041;-61
2022/03/18 00:54:20;;;;;;;41.42;21.58;;;3.10;99.90;;;;;;5053325;28;20496;-61
2022/03/18 00:56:46;;;;;;;42.88;20.73;;;3.10;99.90;;;;;;5052252;28;20029;-61
2022/03/18 00:59:11;;;;;;;41.78;21.75;;;3.00;99.90;;;;;;5052193;28;20033;-61
2022/03/18 01:01:38;;;;;;;44.78;22.05;;;3.00;99.90;;;;;;5053570;28;20100;-61
2022/03/18 01:04:04;;;;;;;42.92;22.60;;;3.00;99.90;;;;;;5053354;28;20021;-61
2022/03/18 01:06:33;;;;;;;37.67;20.88;;;2.90;99.90;;;;;;5052148;28;20021;-61
2022/03/18 01:09:00;;;;;;;43.38;23.63;;;3.00;99.90;;;;;;5053252;28;20516;-61
2022/03/18 01:11:26;;;;;;;43.08;22.80;;;3.00;99.90;;;;;;5053423;28;20029;-61
2022/03/18 01:13:51;;;;;;;45.60;23.25;;;2.90;99.90;;;;;;5056685;28;20032;-61
2022/03/18 01:16:36;;;;;;;39.03;20.70;;;2.90;99.90;;;;;;5057313;28;20025;-61
2022/03/18 01:19:02;;;;;;;38.88;21.08;;;2.80;99.90;;;;;;5056233;28;20029;-61
2022/03/18 01:21:27;;;;;;;40.33;22.15;;;2.70;99.90;;;;;;5056850;28;20025;-61
2022/03/18 01:23:53;;;;;;;39.42;20.83;;;2.60;99.90;;;;;;5057043;28;20104;-61
2022/03/18 01:26:19;;;;;;;40.55;21.85;;;2.60;99.90;;;;;;5056885;28;20037;-61
2022/03/18 01:28:44;;;;;;;42.20;22.15;;;2.50;99.90;;;;;;5057171;28;20036;-61
2022/03/18 01:31:10;;;;;;;36.83;19.65;;;2.50;99.90;;;;;;5057211;28;20021;-61
2022/03/18 01:33:37;;;;;;;38.75;22.90;;;2.40;99.90;;;;;;5056610;28;20025;-61
2022/03/18 01:36:04;;;;;;;45.47;22.10;;;2.40;99.90;;;;;;5056865;28;20037;-61
2022/03/18 01:38:29;;;;;;;43.65;22.23;;;2.40;99.90;;;;;;5055513;28;20021;-61
2022/03/18 01:40:55;;;;;;;39.97;22.02;;;2.30;99.90;;;;;;5055465;28;20127;-61
2022/03/18 01:43:21;;;;;;;39.47;21.55;;;2.30;99.90;;;;;;5056446;28;20021;-61
2022/03/18 01:45:46;;;;;;;40.30;21.40;;;2.20;99.90;;;;;;5056959;28;20484;-61
2022/03/18 01:48:13;;;;;;;39.13;21.50;;;2.20;99.90;;;;;;5055324;28;20024;-61
2022/03/18 01:50:40;;;;;;;40.65;21.08;;;2.10;99.90;;;;;;5056556;28;20017;-61
2022/03/18 01:53:06;;;;;;;41.10;22.38;;;2.10;99.90;;;;;;5056683;28;20029;-61
2022/03/18 01:55:32;;;;;;;39.97;21.45;;;2.00;99.90;;;;;;5056201;28;20397;-62
2022/03/18 01:57:58;;;;;;;38.83;21.15;;;2.00;99.90;;;;;;5056728;28;20021;-62
2022/03/18 02:00:24;;;;;;;37.88;21.20;;;2.00;99.90;;;;;;5055243;28;20389;-62
2022/03/18 02:02:51;;;;;;;41.63;20.92;;;2.30;99.90;;;;;;5056324;28;20029;-62
2022/03/18 02:05:17;;;;;;;41.58;22.17;;;2.20;99.90;;;;;;5056213;28;20033;-61
2022/03/18 02:07:45;;;;;;;43.83;22.23;;;2.10;99.90;;;;;;5056107;28;20106;-61
2022/03/18 02:10:11;;;;;;;39.58;22.38;;;2.20;99.90;;;;;;5054650;28;20025;-61
2022/03/18 02:12:37;;;;;;;37.95;21.65;;;2.20;99.90;;;;;;5054864;28;20028;-62
2022/03/18 02:15:03;;;;;;;38.83;21.90;;;2.20;99.90;;;;;;5055857;28;20031;-61
2022/03/18 02:17:29;;;;;;;40.97;21.38;;;2.20;99.90;;;;;;5056315;28;20033;-61
2022/03/18 02:19:55;;;;;;;43.13;23.08;;;2.20;99.90;;;;;;5056522;28;20028;-62
2022/03/18 02:22:22;;;;;;;49.13;23.92;;;2.20;99.90;;;;;;5054749;28;20025;-61
2022/03/18 02:24:50;;;;;;;43.35;23.42;;;2.30;99.90;;;;;;5053318;28;20037;-61
2022/03/18 02:27:16;;;;;;;41.60;21.95;;;2.30;99.90;;;;;;5054842;28;20033;-61
2022/03/18 02:29:43;;;;;;;45.25;24.13;;;2.40;99.90;;;;;;5055998;28;20033;-61
2022/03/18 02:32:09;;;;;;;43.33;23.25;;;2.40;99.90;;;;;;5055497;28;20063;-61
2022/03/18 02:34:38;;;;;;;44.72;22.35;;;2.40;99.90;;;;;;5055750;28;20101;-61
2022/03/18 02:37:05;;;;;;;42.33;21.92;;;2.50;99.90;;;;;;5055745;28;20468;-61
2022/03/18 02:39:31;;;;;;;42.45;23.52;;;2.60;99.90;;;;;;5055941;28;20111;-61
2022/03/18 02:41:57;;;;;;;43.65;21.27;;;2.60;99.90;;;;;;5055261;28;20480;-61
2022/03/18 02:44:23;;;;;;;38.90;21.63;;;2.70;99.90;;;;;;5055632;28;20466;-61
2022/03/18 02:46:49;;;;;;;43.28;22.13;;;2.80;99.90;;;;;;5055533;28;20104;-61
2022/03/18 02:49:15;;;;;;;48.55;22.02;;;2.80;99.90;;;;;;5054402;28;20174;-61
2022/03/18 02:51:41;;;;;;;43.97;21.95;;;2.90;99.90;;;;;;5054180;28;20036;-61
2022/03/18 02:54:07;;;;;;;45.22;20.98;;;3.00;99.90;;;;;;5055404;28;20110;-61
2022/03/18 02:56:34;;;;;;;41.35;22.40;;;3.00;99.90;;;;;;5055574;28;20033;-61
2022/03/18 02:59:00;;;;;;;43.75;21.67;;;3.10;99.90;;;;;;5055328;28;20021;-61
2022/03/18 03:01:32;;;;;;;41.63;21.48;;;3.10;99.90;;;;;;5054955;28;20039;-61
2022/03/18 03:03:59;;;;;;;42.08;22.92;;;3.00;99.90;;;;;;5055303;28;20021;-61
2022/03/18 03:09:10;;;;;;;44.13;22.88;;;3.00;99.90;;;;;;5055515;28;20059;-61
2022/03/18 03:11:36;;;;;;;41.92;23.25;;;3.00;99.90;;;;;;5055303;28;20029;-61
2022/03/18 03:14:02;;;;;;;41.78;22.88;;;3.00;99.90;;;;;;5054998;28;20107;-61
2022/03/18 03:16:28;;;;;;;41.40;21.90;;;3.10;99.90;;;;;;5054068;28;20060;-61
2022/03/18 03:18:53;;;;;;;40.75;23.05;;;3.10;99.90;;;;;;5054913;28;20025;-61
2022/03/18 03:21:20;;;;;;;48.90;23.35;;;3.10;99.90;;;;;;5054031;28;20427;-61
2022/03/18 03:26:29;;;;;;;42.08;23.98;;;3.20;99.90;;;;;;5054447;28;20136;-61
2022/03/18 03:28:55;;;;;;;43.55;22.95;;;3.20;99.90;;;;;;5054717;28;20447;-61
2022/03/18 03:31:21;;;;;;;38.80;21.65;;;3.20;99.90;;;;;;5053136;28;20028;-61
2022/03/18 03:33:46;;;;;;;47.67;23.33;;;3.20;99.90;;;;;;5054874;28;20108;-61
2022/03/18 03:36:13;;;;;;;44.47;22.77;;;3.20;99.90;;;;;;5054195;28;20051;-61
2022/03/18 03:38:38;;;;;;;42.70;22.45;;;3.20;99.90;;;;;;5053242;28;20039;-61
2022/03/18 03:41:05;;;;;;;43.92;21.42;;;3.20;99.90;;;;;;5054479;28;20099;-61
2022/03/18 03:43:30;;;;;;;43.58;23.23;;;3.20;99.90;;;;;;5054172;28;20447;-61
2022/03/18 03:45:56;;;;;;;39.40;21.73;;;3.20;99.90;;;;;;5054161;28;20028;-61
2022/03/18 03:48:22;;;;;;;46.03;23.75;;;3.20;99.90;;;;;;5054723;28;20025;-61
2022/03/18 03:50:48;;;;;;;48.00;23.10;;;3.20;99.90;;;;;;5054004;28;20029;-61
2022/03/18 03:53:13;;;;;;;45.10;24.48;;;3.20;99.90;;;;;;5052970;28;20036;-61
2022/03/18 03:55:40;;;;;;;40.55;21.40;;;3.10;99.90;;;;;;5054197;28;20445;-61
2022/03/18 03:58:07;;;;;;;40.92;23.00;;;3.10;99.90;;;;;;5054179;28;20025;-61
2022/03/18 04:00:33;;;;;;;44.50;22.70;;;3.10;99.90;;;;;;5053387;28;20082;-61
2022/03/18 04:02:59;;;;;;;44.20;23.27;;;3.00;99.90;;;;;;5053853;28;20032;-61
2022/03/18 04:05:25;;;;;;;50.70;24.42;;;3.00;99.90;;;;;;5054009;28;20114;-61
2022/03/18 04:07:51;;;;;;;38.78;21.80;;;3.00;99.90;;;;;;5053792;28;20503;-61
2022/03/18 04:10:19;;;;;;;42.80;24.10;;;3.00;99.90;;;;;;5054099;28;20066;-61
2022/03/18 04:12:44;;;;;;;39.15;22.27;;;2.90;99.90;;;;;;5054053;28;20017;-61
2022/03/18 04:15:10;;;;;;;45.70;23.45;;;3.00;99.90;;;;;;5052698;28;20087;-61
2022/03/18 04:17:47;;;;;;;44.45;23.80;;;3.00;99.90;;;;;;5052882;28;20033;-61
2022/03/18 04:20:16;;;;;;;44.20;24.63;;;3.00;99.90;;;;;;5054237;28;20047;-61
2022/03/18 04:22:42;;;;;;;45.65;23.67;;;3.00;99.90;;;;;;5053793;28;20021;-61
2022/03/18 04:25:08;;;;;;;49.33;24.05;;;3.00;99.90;;;;;;5053885;28;20467;-61
2022/03/18 04:27:34;;;;;;;43.70;23.83;;;3.00;99.90;;;;;;5054196;28;20138;-61
2022/03/18 04:30:00;;;;;;;42.15;23.65;;;3.00;99.90;;;;;;5053730;28;20051;-62
2022/03/18 04:32:26;;;;;;;44.83;24.40;;;3.00;99.90;;;;;;5052460;28;20036;-61
2022/03/18 04:34:52;;;;;;;45.45;24.17;;;3.10;99.90;;;;;;5053693;28;20112;-61
2022/03/18 04:37:17;;;;;;;46.40;24.10;;;3.10;99.90;;;;;;5053922;28;20039;-61
2022/03/18 04:39:43;;;;;;;42.35;24.38;;;3.10;99.90;;;;;;5053379;28;20504;-61
2022/03/18 04:42:09;;;;;;;47.50;24.40;;;3.10;99.90;;;;;;5053891;28;20032;-61
2022/03/18 04:44:35;;;;;;;39.97;22.25;;;3.10;99.90;;;;;;5053579;28;20032;-61
2022/03/18 04:47:01;;;;;;;46.03;24.25;;;3.10;99.90;;;;;;5053831;28;20044;-61
2022/03/18 04:49:27;;;;;;;42.38;22.45;;;3.10;99.90;;;;;;5057760;28;20427;-61
2022/03/18 04:51:52;;;;;;;46.17;24.02;;;3.10;99.90;;;;;;5057671;28;20503;-61
2022/03/18 04:54:18;;;;;;;48.05;24.92;;;3.10;99.90;;;;;;5056360;28;20025;-61
2022/03/18 04:59:28;;;;;;;45.67;23.80;;;3.10;99.90;;;;;;5057676;28;20396;-61
2022/03/18 05:01:53;;;;;;;48.75;23.92;;;3.30;99.90;;;;;;5057250;28;20025;-61
2022/03/18 05:04:19;;;;;;;45.03;24.23;;;3.20;99.90;;;;;;5057379;28;20039;-61
2022/03/18 05:06:45;;;;;;;45.38;23.73;;;3.20;99.90;;;;;;5057517;28;20029;-61
2022/03/18 05:09:11;;;;;;;46.42;24.55;;;3.20;99.90;;;;;;5055875;28;20087;-61
2022/03/18 05:11:37;;;;;;;44.00;23.98;;;3.10;99.90;;;;;;5057079;28;20060;-61
2022/03/18 05:14:02;;;;;;;42.92;24.20;;;3.10;99.90;;;;;;5057249;28;20051;-61
2022/03/18 05:16:28;;;;;;;43.38;23.20;;;3.00;99.90;;;;;;5057204;28;20461;-61
2022/03/18 05:18:54;;;;;;;46.63;23.83;;;3.00;99.90;;;;;;5057176;28;20024;-62
2022/03/18 05:21:20;;;;;;;40.30;22.50;;;3.00;99.90;;;;;;5055874;28;20059;-62
2022/03/18 05:23:47;;;;;;;50.30;24.58;;;2.90;99.90;;;;;;5056737;28;20392;-61
2022/03/18 05:26:13;;;;;;;41.95;22.73;;;2.90;99.90;;;;;;5055725;28;20037;-62
2022/03/18 05:28:39;;;;;;;47.20;23.27;;;2.80;99.90;;;;;;5055741;28;20059;-62
2022/03/18 05:31:05;;;;;;;42.85;22.77;;;2.80;99.90;;;;;;5056202;28;20110;-61
2022/03/18 05:33:30;;;;;;;50.50;24.80;;;2.80;99.90;;;;;;5055638;28;20588;-61
2022/03/18 05:35:56;;;;;;;48.60;24.77;;;2.90;99.90;;;;;;5055553;28;20033;-62
2022/03/18 05:38:22;;;;;;;51.22;25.60;;;2.90;99.90;;;;;;5056510;28;20055;-61
2022/03/18 05:40:47;;;;;;;47.88;24.20;;;2.90;99.90;;;;;;5055513;28;20108;-62
2022/03/18 05:43:13;;;;;;;51.17;24.50;;;2.90;99.90;;;;;;5055505;28;20120;-61
2022/03/18 05:45:39;;;;;;;46.78;23.08;;;2.90;99.90;;;;;;5056605;28;20091;-61
2022/03/18 05:48:06;;;;;;;47.00;25.63;;;2.90;99.90;;;;;;5056595;28;20024;-61
2022/03/18 05:50:33;;;;;;;44.17;23.52;;;3.00;99.90;;;;;;5055293;28;20115;-62
2022/03/18 05:52:59;;;;;;;45.10;24.17;;;3.20;99.90;;;;;;5055399;28;20029;-62
2022/03/18 05:55:26;;;;;;;43.58;23.92;;;3.20;99.90;;;;;;5056504;28;20458;-62
2022/03/18 05:57:53;;;;;;;47.25;24.00;;;3.20;99.90;;;;;;5056149;28;20414;-61
2022/03/18 06:00:19;;;;;;;49.05;23.98;;;3.20;99.90;;;;;;5055008;28;20027;-62
2022/03/18 06:02:45;;;;;;;51.40;25.20;;;3.30;99.90;;;;;;5056386;28;20141;-61
2022/03/18 06:05:10;;;;;;;44.17;23.55;;;3.40;99.90;;;;;;5055008;28;20033;-61
2022/03/18 06:07:40;;;;;;;48.17;24.92;;;3.50;99.90;;;;;;5054825;28;20511;-61
2022/03/18 06:12:50;;;;;;;48.60;24.02;;;3.70;99.90;;;;;;5055941;28;20032;-61
2022/03/18 06:15:16;;;;;;;48.50;23.25;;;3.70;99.90;;;;;;5056601;28;20037;-61
2022/03/18 06:17:41;;;;;;;46.92;25.13;;;3.80;99.90;;;;;;5054830;28;20033;-61
2022/03/18 06:20:07;;;;;;;51.55;27.30;;;3.90;99.90;;;;;;5055952;28;20029;-62
2022/03/18 06:22:33;;;;;;;48.33;24.60;;;3.90;99.90;;;;;;5056417;28;20037;-61
2022/03/18 06:24:58;;;;;;;44.28;23.48;;;4.10;99.90;;;;;;5054675;28;20036;-62
2022/03/18 06:27:24;;;;;;;47.80;24.83;;;4.10;99.90;;;;;;5055989;28;20033;-61
2022/03/18 06:29:51;;;;;;;48.97;24.20;;;4.10;99.90;;;;;;5055944;28;20029;-61
2022/03/18 06:32:17;;;;;;;46.92;23.42;;;4.20;99.90;;;;;;5055844;28;20112;-61
2022/03/18 06:34:42;;;;;;;50.83;24.48;;;4.30;99.90;;;;;;5055751;28;20113;-61
2022/03/18 06:37:08;;;;;;;48.17;24.83;;;4.30;99.90;;;;;;5055774;28;20029;-61
2022/03/18 06:39:34;;;;;;;46.60;24.20;;;4.40;99.90;;;;;;5054426;28;20523;-61
2022/03/18 06:42:02;;;;;;;51.58;25.02;;;4.40;99.90;;;;;;5055601;28;20032;-61
2022/03/18 06:44:28;;;;;;;49.50;25.92;;;4.50;99.90;;;;;;5055683;28;20033;-61
2022/03/18 06:46:54;;;;;;;47.63;24.85;;;4.50;99.90;;;;;;5054448;28;20427;-61
2022/03/18 06:49:20;;;;;;;50.08;25.65;;;4.60;99.90;;;;;;5055490;28;20079;-61
2022/03/18 06:51:46;;;;;;;46.20;25.35;;;4.60;99.90;;;;;;5054101;28;20074;-61
2022/03/18 06:54:12;;;;;;;50.67;25.98;;;4.70;99.90;;;;;;5055525;28;20115;-61
2022/03/18 06:56:38;;;;;;;49.10;25.48;;;4.70;99.90;;;;;;5053809;28;20028;-61
2022/03/18 06:59:04;;;;;;;48.78;24.67;;;4.80;99.90;;;;;;5055323;28;20116;-61
2022/03/18 07:01:30;;;;;;;49.28;25.35;;;4.90;99.90;;;;;;5055241;28;20021;-61
2022/03/18 07:03:56;;;;;;;47.67;24.75;;;4.90;99.90;;;;;;5055126;28;20021;-61
2022/03/18 07:06:22;;;;;;;46.13;24.80;;;5.00;99.90;;;;;;5053743;28;20029;-61
2022/03/18 07:08:47;;;;;;;46.33;25.20;;;5.00;99.90;;;;;;5053602;28;20055;-61
2022/03/18 07:11:13;;;;;;;45.33;24.83;;;5.10;99.90;;;;;;5054820;28;20025;-61
2022/03/18 07:13:42;;;;;;;44.65;24.52;;;5.20;99.90;;;;;;5055164;28;20029;-61
2022/03/18 07:18:51;;;;;;;50.88;25.80;;;5.40;99.90;;;;;;5055053;28;20051;-61
2022/03/18 07:21:17;;;;;;;48.78;25.70;;;5.50;99.90;;;;;;5053646;28;20448;-61
2022/03/18 07:23:43;;;;;;;49.85;26.05;;;5.60;99.90;;;;;;5054546;28;20032;-61
2022/03/18 07:26:08;;;;;;;52.58;25.63;;;5.70;99.90;;;;;;5054556;28;20515;-61
2022/03/18 07:28:34;;;;;;;45.42;23.13;;;5.70;99.90;;;;;;5054454;28;20099;-61
2022/03/18 07:31:00;;;;;;;56.10;25.88;;;5.80;99.90;;;;;;5054476;28;20027;-61
2022/03/18 07:33:25;;;;;;;47.63;26.10;;;5.90;99.90;;;;;;5054692;28;20029;-61
2022/03/18 07:35:51;;;;;;;41.92;23.83;;;6.00;99.90;;;;;;5054840;28;20131;-61
2022/03/18 07:38:17;;;;;;;44.28;23.95;;;6.00;99.90;;;;;;5053023;28;20036;-61
2022/03/18 07:40:43;;;;;;;43.65;24.52;;;6.20;99.90;;;;;;5054509;28;20029;-62
2022/03/18 07:43:10;;;;;;;48.92;25.92;;;6.30;99.90;;;;;;5054530;28;20021;-62
2022/03/18 07:45:36;;;;;;;47.92;25.92;;;6.40;99.90;;;;;;5054117;28;20090;-62
2022/03/18 07:48:05;;;;;;;46.97;24.88;;;6.60;99.90;;;;;;5054440;28;20033;-61
2022/03/18 07:50:32;;;;;;;51.90;24.90;;;6.70;99.90;;;;;;5054390;28;20021;-62
2022/03/18 07:53:03;;;;;;;44.92;25.25;;;6.90;99.90;;;;;;5054483;28;20355;-62
2022/03/18 07:55:31;;;;;;;45.47;24.33;;;7.00;99.90;;;;;;5054233;28;20108;-62
2022/03/18 07:57:58;;;;;;;46.58;23.27;;;7.10;99.90;;;;;;5054248;28;20025;-62
2022/03/18 08:00:24;;;;;;;41.15;23.10;;;7.20;99.90;;;;;;5052619;28;20116;-62
2022/03/18 08:02:51;;;;;;;44.00;23.65;;;7.40;99.90;;;;;;5054949;28;20441;-62
2022/03/18 08:05:17;;;;;;;43.13;24.08;;;7.60;99.90;;;;;;5053744;28;20488;-62
2022/03/18 08:07:49;;;;;;;38.40;22.38;;;7.70;99.90;;;;;;5053931;28;20087;-62
2022/03/18 08:10:15;;;;;;;42.85;23.25;;;7.70;99.90;;;;;;5053095;28;20032;-62
2022/03/18 08:12:42;;;;;;;43.28;23.00;;;7.70;99.90;;;;;;5053683;28;20025;-61
2022/03/18 08:15:11;;;;;;;41.50;23.30;;;7.60;99.90;;;;;;5053691;28;20040;-62
2022/03/18 08:17:40;;;;;;;44.92;22.63;;;7.70;99.90;;;;;;5053923;28;20029;-62
2022/03/18 08:20:08;;;;;;;42.42;23.02;;;7.80;99.90;;;;;;5052590;28;20036;-62
2022/03/18 08:22:35;;;;;;;47.90;22.08;;;8.00;99.90;;;;;;5050761;28;20074;-62
2022/03/18 08:25:00;;;;;;;37.80;21.83;;;8.00;99.90;;;;;;5053791;28;20055;-62
2022/03/18 08:27:26;;;;;;;40.03;23.08;;;8.10;99.90;;;;;;5053007;28;20036;-62
2022/03/18 08:29:57;;;;;;;42.65;22.55;;;8.10;99.90;;;;;;5053463;28;20021;-62
2022/03/18 08:32:25;;;;;;;41.17;22.17;;;8.10;99.90;;;;;;5053589;28;20075;-61
2022/03/18 08:34:50;;;;;;;40.90;22.02;;;8.20;99.90;;;;;;5053576;28;20029;-61
2022/03/18 08:37:56;;;;;;;37.58;20.90;;;8.30;99.90;;;;;;5053630;28;20134;-61
2022/03/18 08:40:02;;;;;;;40.35;21.33;;;8.30;99.90;;;;;;5053596;28;20370;-62
2022/03/18 08:42:28;;;;;;;35.72;20.52;;;8.60;99.90;;;;;;5053625;28;20082;-61
2022/03/18 08:44:53;;;;;;;35.75;22.08;;;8.70;99.90;;;;;;5053266;28;20033;-62
2022/03/18 08:47:19;;;;;;;38.58;20.73;;;8.80;99.90;;;;;;5052382;28;20040;-61
2022/03/18 08:49:45;;;;;;;37.30;21.70;;;8.80;99.90;;;;;;5052422;28;20029;-61
2022/03/18 08:52:11;;;;;;;35.90;21.40;;;9.00;99.90;;;;;;5053638;28;20036;-61
2022/03/18 08:54:36;;;;;;;40.53;22.42;;;9.10;99.90;;;;;;5053562;28;20025;-62
2022/03/18 08:57:02;;;;;;;41.67;22.27;;;9.10;99.90;;;;;;5053507;28;20036;-62
2022/03/18 08:59:28;;;;;;;39.25;21.77;;;9.30;99.90;;;;;;5053824;28;20029;-62
2022/03/18 09:01:53;;;;;;;39.67;21.50;;;9.50;99.90;;;;;;5052309;28;20025;-62
2022/03/18 09:04:19;;;;;;;39.42;21.38;;;9.80;99.90;;;;;;5053355;28;20035;-62
2022/03/18 09:06:46;;;;;;;53.72;29.33;;;10.20;99.90;;;;;;5052446;28;20132;-62
2022/03/18 09:09:12;;;;;;;37.67;22.45;;;10.40;99.90;;;;;;5052919;28;20128;-62
2022/03/18 09:11:37;;;;;;;38.47;21.88;;;10.70;99.90;;;;;;5053463;28;20075;-62
2022/03/18 09:14:03;;;;;;;36.05;21.30;;;10.80;99.90;;;;;;5053257;28;20029;-62
2022/03/18 09:16:30;;;;;;;36.47;21.55;;;10.90;99.90;;;;;;5053243;28;20029;-62
2022/03/18 09:18:56;;;;;;;36.53;21.25;;;11.30;99.90;;;;;;5053176;28;20087;-62
2022/03/18 09:21:22;;;;;;;40.30;22.73;;;11.90;99.90;;;;;;5052879;28;20025;-62
2022/03/18 09:23:48;;;;;;;34.35;20.98;;;12.10;99.90;;;;;;5053141;28;20453;-61
2022/03/18 09:26:13;;;;;;;39.17;22.40;;;12.20;99.90;;;;;;5053090;28;20113;-62
2022/03/18 09:28:40;;;;;;;32.30;21.17;;;12.10;99.90;;;;;;5053180;28;20029;-62
2022/03/18 09:31:05;;;;;;;35.58;20.85;;;12.40;99.90;;;;;;5052669;28;20489;-62
2022/03/18 09:33:31;;;;;;;36.60;22.52;;;12.60;99.90;;;;;;5054155;28;20116;-62
2022/03/18 09:35:57;;;;;;;40.92;23.05;;;12.40;99.90;;;;;;5057052;28;20484;-62
2022/03/18 09:38:22;;;;;;;35.15;21.30;;;12.40;99.90;;;;;;5056023;28;20021;-62
2022/03/18 09:40:48;;;;;;;35.70;21.85;;;12.30;99.90;;;;;;5057053;28;20057;-62
2022/03/18 09:43:14;;;;;;;38.17;22.38;;;12.60;99.90;;;;;;5056652;28;20504;-62
2022/03/18 09:45:40;;;;;;;34.53;21.90;;;12.90;99.90;;;;;;5056547;28;20033;-62
2022/03/18 09:48:09;;;;;;;34.72;21.60;;;13.00;99.90;;;;;;5056781;28;20105;-62
2022/03/18 09:50:36;;;;;;;37.92;22.63;;;12.80;99.90;;;;;;5056639;28;20112;-62
2022/03/18 09:53:02;;;;;;;36.55;22.00;;;12.80;99.90;;;;;;5056798;28;20039;-62
2022/03/18 09:55:30;;;;;;;39.28;22.75;;;12.90;99.90;;;;;;5056725;28;20040;-62
2022/03/18 09:57:56;;;;;;;36.80;23.33;;;13.00;99.90;;;;;;5056471;28;20025;-62
2022/03/18 10:00:22;;;;;;;35.95;23.30;;;12.10;99.90;;;;;;5056466;28;20032;-62
2022/03/18 10:03:08;;;;;;;39.95;23.38;;;12.10;99.90;;;;;;5055035;28;20029;-62
2022/03/18 10:05:34;;;;;;;37.08;23.85;;;12.20;99.90;;;;;;5055029;28;20033;-62
2022/03/18 10:08:00;;;;;;;38.58;22.70;;;12.10;99.90;;;;;;5056539;28;20465;-61
2022/03/18 10:10:26;;;;;;;38.72;23.55;;;11.80;99.90;;;;;;5056239;28;20040;-62
2022/03/18 10:12:55;;;;;;;38.65;23.48;;;12.20;99.90;;;;;;5056217;28;20052;-62
2022/03/18 10:15:24;;;;;;;37.28;23.70;;;12.10;99.90;;;;;;5054892;28;20032;-62
2022/03/18 10:17:57;;;;;;;39.10;22.53;;;12.40;99.90;;;;;;5056076;28;20392;-62
2022/03/18 10:20:33;;;;;;;36.90;23.75;;;13.00;99.90;;;;;;5056156;28;20370;-62
2022/03/18 10:23:18;;;;;;;39.35;23.70;;;12.60;99.90;;;;;;5055938;28;20033;-62
2022/03/18 10:25:50;;;;;;;38.47;23.05;;;12.50;99.90;;;;;;5054610;28;20037;-62
2022/03/18 10:28:30;;;;;;;38.60;23.95;;;12.60;99.90;;;;;;5054689;28;20465;-62
2022/03/18 10:31:15;;;;;;;39.33;24.08;;;12.90;99.90;;;;;;5055805;28;20032;-62
2022/03/18 10:42:20;;;;;;;33.58;22.45;;;13.00;99.90;;;;;;5056686;28;20130;-62
2022/03/18 10:44:51;;;;;;;38.20;22.23;;;12.90;99.90;;;;;;5055887;28;20088;-62
2022/03/18 10:47:28;;;;;;;35.45;22.00;;;13.40;99.90;;;;;;5056461;28;20028;-62
2022/03/18 10:50:32;;;;;;;32.08;20.95;;;13.90;99.50;;;;;;5054443;28;20029;-62
2022/03/18 10:53:02;;;;;;;32.13;20.98;;;13.80;99.90;;;;;;5055648;28;20024;-62
2022/03/18 10:55:40;;;;;;;37.65;22.85;;;14.10;98.60;;;;;;5054008;28;20033;-62
2022/03/18 10:58:15;;;;;;;37.50;22.45;;;14.30;98.50;;;;;;5053999;28;20029;-62
2022/03/18 11:00:45;;;;;;;29.23;20.17;;;14.80;97.40;;;;;;5055369;28;20033;-62
2022/03/18 11:03:13;;;;;;;30.98;20.13;;;14.90;96.20;;;;;;5055234;28;20147;-62
2022/03/18 11:05:42;;;;;;;33.45;20.52;;;14.90;94.70;;;;;;5053702;28;20033;-62
2022/03/18 11:08:13;;;;;;;35.60;21.20;;;14.80;94.50;;;;;;5054753;28;20044;-62
2022/03/18 11:11:20;;;;;;;29.20;19.63;;;15.10;94.00;;;;;;5054045;28;20403;-62
2022/03/18 11:13:48;;;;;;;28.50;18.40;;;14.60;92.10;;;;;;5054961;28;20021;-62
2022/03/18 11:16:19;;;;;;;29.75;19.48;;;13.90;94.90;;;;;;5054047;28;20387;-62
2022/03/18 11:18:47;;;;;;;30.75;19.60;;;13.50;96.90;;;;;;5053865;28;20441;-62
2022/03/18 11:21:13;;;;;;;32.33;20.60;;;13.60;97.60;;;;;;5053603;28;20465;-62
2022/03/18 11:23:41;;;;;;;28.50;18.95;;;14.00;94.80;;;;;;5054948;28;20024;-62
2022/03/18 11:26:10;;;;;;;28.30;18.85;;;14.20;94.40;;;;;;5054410;28;20118;-61
2022/03/18 11:28:36;;;;;;;28.17;18.08;;;14.10;94.00;;;;;;5054834;28;20029;-62
2022/03/18 11:31:05;;;;;;;29.75;18.83;;;14.50;94.40;;;;;;5054660;28;20029;-62
2022/03/18 11:33:32;;;;;;;28.77;19.52;;;14.30;93.50;;;;;;5054429;28;20033;-62
2022/03/18 11:36:00;;;;;;;29.90;19.13;;;14.00;92.30;;;;;;5054538;28;20053;-62
2022/03/18 11:38:47;;;;;;;27.48;18.13;;;13.50;95.40;;;;;;5054620;28;20033;-62
2022/03/18 11:41:14;;;;;;;29.38;17.95;;;13.40;91.80;;;;;;5047055;28;20373;-62
2022/03/18 11:43:42;;;;;;;27.52;17.67;;;13.80;92.30;;;;;;5054536;28;20029;-62
2022/03/18 11:46:13;;;;;;;27.40;19.40;;;14.70;89.20;;;;;;5054040;28;20029;-62
2022/03/18 11:48:46;;;;;;;27.45;19.38;;;15.40;85.90;;;;;;5053099;28;20051;-62
2022/03/18 11:51:39;;;;;;;31.92;21.15;;;15.60;76.30;;;;;;5053158;28;20025;-62
2022/03/18 11:54:07;;;;;;;29.15;19.42;;;14.60;82.00;;;;;;5053026;28;20029;-62
2022/03/18 11:56:52;;;;;;;29.23;18.77;;;14.50;87.50;;;;;;5054110;28;20032;-62
2022/03/18 11:59:31;;;;;;;25.92;17.95;;;14.90;82.30;;;;;;5054112;28;20031;-63
2022/03/18 12:02:04;;;;;;;;;;;15.80;76.90;;;;;;5054549;28;20028;-62
2022/03/18 12:07:24;;;;;;;27.48;18.55;;;17.00;62.60;;;;;;5053728;28;20428;-62
2022/03/18 12:09:51;;;;;;;30.42;19.35;;;15.70;59.10;;;;;;5053924;28;20033;-62
2022/03/18 12:12:20;;;;;;;30.63;19.08;;;14.90;65.30;;;;;;5054260;28;20112;-62
2022/03/18 12:14:46;;;;;;;31.35;19.65;;;14.20;70.40;;;;;;5053009;28;20410;-62
2022/03/18 12:17:12;;;;;;;32.08;19.58;;;13.80;84.60;;;;;;5053963;28;20114;-62
2022/03/18 12:19:38;;;;;;;32.17;20.17;;;13.80;85.50;;;;;;5053922;28;20025;-62
2022/03/18 12:22:06;;;;;;;34.30;21.50;;;14.00;87.30;;;;;;5053634;28;20433;-62
2022/03/18 12:24:32;;;;;;;31.80;19.67;;;14.10;90.80;;;;;;5053537;28;20087;-62
2022/03/18 12:27:02;;;;;;;31.73;20.85;;;15.00;82.70;;;;;;5053832;28;20021;-62
2022/03/18 12:29:29;;;;;;;31.80;21.20;;;14.90;80.80;;;;;;5053855;28;20032;-62
2022/03/18 12:32:13;;;;;;;30.58;19.70;;;14.80;81.20;;;;;;5052521;28;20431;-62
2022/03/18 12:34:51;;;;;;;33.67;20.00;;;15.60;73.80;;;;;;5052467;28;20112;-62
2022/03/18 12:37:22;;;;;;;29.63;20.42;;;16.40;66.90;;;;;;5053626;28;20029;-62
2022/03/18 12:40:00;;;;;;;34.33;20.73;;;15.90;67.60;;;;;;5053838;28;20351;-62
2022/03/18 12:42:26;;;;;;;31.75;20.05;;;15.20;74.80;;;;;;5052437;28;20461;-62
2022/03/18 12:44:57;;;;;;;28.40;19.48;;;15.60;74.10;;;;;;5053670;28;20086;-62
2022/03/18 12:47:26;;;;;;;30.10;19.52;;;16.50;66.00;;;;;;5052370;28;20064;-62
2022/03/18 12:50:11;;;;;;;27.70;19.08;;;16.90;60.70;;;;;;5052157;28;20120;-62
2022/03/18 12:52:43;;;;;;;28.10;19.15;;;16.70;61.70;;;;;;5053160;28;20025;-62
2022/03/18 12:55:12;;;;;;;35.20;19.67;;;17.40;59.50;;;;;;5053340;28;20108;-62
2022/03/18 12:57:41;;;;;;;27.20;19.33;;;17.80;57.40;;;;;;5053512;28;20029;-62
2022/03/18 13:00:08;;;;;;;;;;;17.90;55.60;;;;;;5053875;28;20462;-62
2022/03/18 13:02:37;;;;;;;28.33;18.98;;;18.60;54.40;;;;;;5052347;28;19927;-62
2022/03/18 13:05:05;;;;;;;24.85;18.38;;;19.10;50.50;;;;;;5052915;28;20037;-62
2022/03/18 13:07:31;;;;;;;24.25;18.27;;;19.40;49.40;;;;;;5053199;28;20386;-62